createdAt,value
2019-03-22T00:00:34.917Z,101328.98
2019-03-22T00:05:40.995Z,101324.57
2019-03-22T00:10:47.089Z,101321.97
2019-03-22T00:15:53.361Z,101314.84
2019-03-22T00:20:59.390Z,101303.33
2019-03-22T00:26:05.295Z,101298.45
2019-03-22T00:31:11.216Z,101291.81
2019-03-22T00:36:17.304Z,101282.07
2019-03-22T00:41:23.180Z,101261.66
2019-03-22T00:46:29.088Z,101264.25
2019-03-22T00:51:35.089Z,101252.75
2019-03-22T00:56:41.281Z,101258.48
2019-03-22T01:01:47.516Z,101271.79
2019-03-22T01:06:53.441Z,101260.67
2019-03-22T01:11:59.689Z,101256.25
2019-03-22T01:17:05.665Z,101248.29
2019-03-22T01:22:11.640Z,101238.52
2019-03-22T01:27:17.494Z,101235.88
2019-03-22T01:32:24.117Z,101237.69
2019-03-22T01:37:30.060Z,101228.81
2019-03-22T01:42:36.289Z,101227.91
2019-03-22T01:47:42.455Z,101220.34
2019-03-22T01:52:48.900Z,101226.05
2019-03-22T01:57:54.910Z,101219.39
2019-03-22T02:03:00.800Z,101208.75
2019-03-22T02:08:06.749Z,101224.28
2019-03-22T02:13:15.655Z,101226.03
2019-03-22T02:18:21.564Z,101224.70
2019-03-22T02:23:27.481Z,101218.89
2019-03-22T02:28:33.366Z,101217.13
2019-03-22T02:33:39.294Z,101218.02
2019-03-22T02:38:45.258Z,101215.29
2019-03-22T02:43:54.442Z,101217.05
2019-03-22T02:48:58.867Z,101217.13
2019-03-22T02:54:04.857Z,101212.39
2019-03-22T02:59:10.730Z,101212.86
2019-03-22T03:04:16.634Z,101216.48
2019-03-22T03:09:22.553Z,101207.55
2019-03-22T03:14:28.470Z,101207.48
2019-03-22T03:19:34.335Z,101194.53
2019-03-22T03:24:40.350Z,101197.64
2019-03-22T03:29:46.505Z,101183.84
2019-03-22T03:34:52.401Z,101183.34
2019-03-22T03:39:58.421Z,101175.75
2019-03-22T03:45:04.459Z,101173.09
2019-03-22T03:50:10.649Z,101169.59
2019-03-22T03:55:16.598Z,101158.52
2019-03-22T04:00:22.617Z,101163.38
2019-03-22T04:05:28.539Z,101157.20
2019-03-22T04:10:34.583Z,101147.06
2019-03-22T04:15:40.686Z,101152.00
2019-03-22T04:20:46.775Z,101152.54
2019-03-22T04:25:52.633Z,101146.05
2019-03-22T04:30:58.522Z,101135.63
2019-03-22T04:36:04.484Z,101132.16
2019-03-22T04:41:10.391Z,101138.81
2019-03-22T04:46:17.820Z,101134.42
2019-03-22T04:51:24.920Z,101132.68
2019-03-22T04:56:33.952Z,101124.34
2019-03-22T05:01:41.800Z,101123.53
2019-03-22T05:06:49.910Z,101124.91
2019-03-22T05:11:57.665Z,101121.41
2019-03-22T05:17:04.711Z,101123.17
2019-03-22T05:22:13.840Z,101123.22
2019-03-22T05:27:21.215Z,101123.24
2019-03-22T05:32:27.166Z,101126.38
2019-03-22T05:37:33.100Z,101130.78
2019-03-22T05:42:39.070Z,101125.91
2019-03-22T05:47:44.940Z,101134.35
2019-03-22T05:52:52.763Z,101128.55
2019-03-22T05:57:58.559Z,101131.27
2019-03-22T06:03:04.441Z,101143.66
2019-03-22T06:08:10.427Z,101137.02
2019-03-22T06:13:16.593Z,101140.09
2019-03-22T06:18:22.484Z,101144.50
2019-03-22T06:23:28.411Z,101137.44
2019-03-22T06:28:34.480Z,101126.44
2019-03-22T06:33:40.485Z,101128.63
2019-03-22T06:38:46.375Z,101123.72
2019-03-22T06:43:52.434Z,101129.47
2019-03-22T06:48:58.351Z,101135.67
2019-03-22T06:54:04.366Z,101139.55
2019-03-22T06:59:10.348Z,101139.95
2019-03-22T07:04:16.310Z,101136.25
2019-03-22T07:09:22.252Z,101146.28
2019-03-22T07:14:28.249Z,101149.16
2019-03-22T07:19:34.425Z,101159.10
2019-03-22T07:24:40.375Z,101153.13
2019-03-22T07:29:46.360Z,101163.21
2019-03-22T07:34:52.305Z,101163.41
2019-03-22T07:40:00.397Z,101165.82
2019-03-22T07:45:06.678Z,101167.01
2019-03-22T07:50:12.899Z,101161.37
2019-03-22T07:55:18.806Z,101152.43
2019-03-22T08:00:30.607Z,101158.32
2019-03-22T08:05:32.470Z,101162.13
2019-03-22T08:10:38.620Z,101156.08
2019-03-22T08:15:44.601Z,101168.50
2019-03-22T08:20:50.764Z,101160.33
2019-03-22T08:25:58.909Z,101165.76
2019-03-22T08:31:05.696Z,101173.25
2019-03-22T08:36:14.797Z,101174.81
2019-03-22T08:41:19.752Z,101179.08
2019-03-22T08:46:26.022Z,101181.94
2019-03-22T08:51:32.107Z,101172.45
2019-03-22T08:56:38.113Z,101170.61
2019-03-22T09:01:44.050Z,101166.82
2019-03-22T09:06:50.150Z,101175.38
2019-03-22T09:11:56.271Z,101175.61
2019-03-22T09:17:02.185Z,101171.72
2019-03-22T09:22:08.495Z,101176.37
2019-03-22T09:27:14.545Z,101168.53
2019-03-22T09:32:20.485Z,101169.53
2019-03-22T09:37:26.453Z,101165.80
2019-03-22T09:42:32.779Z,101157.12
2019-03-22T09:47:38.760Z,101169.66
2019-03-22T09:52:44.966Z,101174.89
2019-03-22T09:57:51.014Z,101164.80
2019-03-22T10:02:57.032Z,101180.86
2019-03-22T10:08:03.508Z,101184.73
2019-03-22T10:13:09.497Z,101178.14
2019-03-22T10:18:15.524Z,101172.24
2019-03-22T10:23:22.530Z,101169.56
2019-03-22T10:28:28.568Z,101168.52
2019-03-22T10:33:34.565Z,101171.55
2019-03-22T10:38:40.644Z,101171.30
2019-03-22T10:43:46.745Z,101172.39
2019-03-22T10:48:52.659Z,101172.20
2019-03-22T10:53:58.566Z,101167.16
2019-03-22T10:59:04.810Z,101167.31
2019-03-22T11:04:10.967Z,101166.33
2019-03-22T11:09:17.090Z,101178.63
2019-03-22T11:14:23.097Z,101158.78
2019-03-22T11:19:29.370Z,101171.50
2019-03-22T11:24:35.715Z,101165.61
2019-03-22T11:29:41.651Z,101165.86
2019-03-22T11:34:47.665Z,101171.95
2019-03-22T11:39:54.048Z,101172.31
2019-03-22T11:45:00.020Z,101164.21
2019-03-22T11:50:09.666Z,101166.69
2019-03-22T11:55:15.855Z,101161.17
2019-03-22T12:00:22.885Z,101158.39
2019-03-22T12:05:28.915Z,101165.27
2019-03-22T12:10:35.153Z,101153.13
2019-03-22T12:15:41.301Z,101151.27
2019-03-22T12:20:47.606Z,101155.01
2019-03-22T12:25:53.927Z,101148.11
2019-03-22T12:30:59.930Z,101145.13
2019-03-22T12:36:06.090Z,101134.55
2019-03-22T12:41:12.046Z,101132.63
2019-03-22T12:46:18.055Z,101139.53
2019-03-22T12:51:24.436Z,101133.17
2019-03-22T12:56:30.630Z,101123.30
2019-03-22T13:01:37.781Z,101113.70
2019-03-22T13:06:43.839Z,101112.36
2019-03-22T13:11:51.740Z,101114.47
2019-03-22T13:16:57.717Z,101098.75
2019-03-22T13:22:03.932Z,101109.23
2019-03-22T13:27:09.974Z,101106.85
2019-03-22T13:32:15.960Z,101115.50
2019-03-22T13:37:21.925Z,101098.92
2019-03-22T13:42:27.961Z,101105.47
2019-03-22T13:47:33.945Z,101110.33
2019-03-22T13:52:40.420Z,101106.17
2019-03-22T13:57:46.411Z,101099.08
2019-03-22T14:03:02.115Z,101095.44
2019-03-22T14:08:00.219Z,101100.03
2019-03-22T14:13:07.864Z,101103.33
2019-03-22T14:18:13.976Z,101105.29
2019-03-22T14:23:20.377Z,101114.50
2019-03-22T14:28:26.470Z,101111.72
2019-03-22T14:33:32.449Z,101118.98
2019-03-22T14:38:39.649Z,101116.89
2019-03-22T14:43:45.673Z,101126.17
2019-03-22T14:48:51.731Z,101128.73
2019-03-22T14:54:00.606Z,101135.61
2019-03-22T14:59:06.571Z,101128.81
2019-03-22T15:04:12.778Z,101134.12
2019-03-22T15:09:18.979Z,101123.77
2019-03-22T15:14:37.296Z,101123.38
2019-03-22T15:20:02.797Z,101128.20
2019-03-22T15:25:28.602Z,101126.48
2019-03-22T15:30:43.069Z,101128.73
2019-03-22T15:35:59.108Z,101125.97
2019-03-22T15:41:07.633Z,101131.89
2019-03-22T15:46:13.710Z,101126.20
2019-03-22T15:51:19.836Z,101127.53
2019-03-22T15:56:25.737Z,101136.98
2019-03-22T16:01:34.399Z,101135.44
2019-03-22T16:06:40.483Z,101133.39
2019-03-22T16:11:46.565Z,101132.59
2019-03-22T16:16:54.321Z,101129.24
2019-03-22T16:22:00.400Z,101134.75
2019-03-22T16:27:06.650Z,101128.73
2019-03-22T16:32:12.536Z,101126.55
2019-03-22T16:37:18.496Z,101122.36
2019-03-22T16:42:24.406Z,101130.03
2019-03-22T16:47:30.625Z,101134.06
2019-03-22T16:52:36.765Z,101129.75
2019-03-22T16:57:43.646Z,101134.35
2019-03-22T17:02:49.705Z,101134.84
2019-03-22T17:07:55.861Z,101130.84
2019-03-22T17:13:01.892Z,101126.61
2019-03-22T17:18:08.201Z,101139.53
2019-03-22T17:23:16.270Z,101129.44
2019-03-22T17:28:24.077Z,101131.36
2019-03-22T17:33:30.122Z,101136.20
2019-03-22T17:38:36.611Z,101140.66
2019-03-22T17:43:42.700Z,101136.53
2019-03-22T17:48:48.792Z,101142.45
2019-03-22T17:53:54.952Z,101153.46
2019-03-22T17:59:00.899Z,101155.66
2019-03-22T18:04:07.116Z,101159.81
2019-03-22T18:09:13.132Z,101168.94
2019-03-22T18:14:19.155Z,101173.55
2019-03-22T18:19:25.780Z,101180.24
2019-03-22T18:24:31.786Z,101183.24
2019-03-22T18:29:38.853Z,101187.88
2019-03-22T18:34:44.985Z,101186.92
2019-03-22T18:39:51.361Z,101200.25
2019-03-22T18:44:57.849Z,101197.02
2019-03-22T18:50:06.003Z,101198.92
2019-03-22T18:55:12.805Z,101201.82
2019-03-22T19:00:19.136Z,101202.92
2019-03-22T19:05:25.081Z,101202.31
2019-03-22T19:10:31.133Z,101197.23
2019-03-22T19:15:40.125Z,101199.60
2019-03-22T19:20:48.146Z,101213.81
2019-03-22T19:25:57.196Z,101212.00
2019-03-22T19:31:03.686Z,101223.47
2019-03-22T19:36:09.825Z,101221.36
2019-03-22T19:41:16.070Z,101221.70
2019-03-22T19:46:22.030Z,101223.53
2019-03-22T19:51:27.980Z,101221.05
2019-03-22T19:56:34.295Z,101224.27
2019-03-22T20:01:40.281Z,101228.90
2019-03-22T20:06:46.340Z,101232.69
2019-03-22T20:11:52.410Z,101236.54
2019-03-22T20:16:58.510Z,101242.31
2019-03-22T20:22:04.557Z,101248.05
2019-03-22T20:27:10.555Z,101246.73
2019-03-22T20:32:16.946Z,101250.93
2019-03-22T20:37:22.953Z,101257.53
2019-03-22T20:42:29.333Z,101263.20
2019-03-22T20:47:35.609Z,101270.38
2019-03-22T20:52:41.725Z,101270.76
2019-03-22T20:57:47.760Z,101277.71
2019-03-22T21:02:54.294Z,101275.79
2019-03-22T21:08:00.370Z,101279.17
2019-03-22T21:13:06.761Z,101284.42
2019-03-22T21:18:13.101Z,101292.48
2019-03-22T21:23:19.177Z,101290.94
2019-03-22T21:28:26.085Z,101297.52
2019-03-22T21:33:32.637Z,101292.72
2019-03-22T21:38:38.957Z,101294.02
2019-03-22T21:43:45.337Z,101289.36
2019-03-22T21:48:51.518Z,101284.02
2019-03-22T21:53:57.580Z,101280.13
2019-03-22T21:59:03.657Z,101288.18
2019-03-22T22:04:09.680Z,101291.61
2019-03-22T22:09:15.762Z,101291.25
2019-03-22T22:14:21.752Z,101296.19
2019-03-22T22:19:27.836Z,101291.99
2019-03-22T22:24:33.836Z,101295.56
2019-03-22T22:29:39.767Z,101291.74
2019-03-22T22:34:46.007Z,101293.92
2019-03-22T22:39:52.025Z,101296.19
2019-03-22T22:44:58.100Z,101298.77
2019-03-22T22:50:04.326Z,101297.64
2019-03-22T22:55:10.635Z,101300.30
2019-03-22T23:00:17.573Z,101289.36
2019-03-22T23:05:23.604Z,101288.75
2019-03-22T23:10:29.711Z,101290.92
2019-03-22T23:15:35.689Z,101283.02
2019-03-22T23:20:42.113Z,101281.84
2019-03-22T23:25:48.181Z,101276.69
2019-03-22T23:30:54.714Z,101272.05
2019-03-22T23:36:00.847Z,101273.31
2019-03-22T23:41:07.096Z,101276.63
2019-03-22T23:46:13.045Z,101274.52
2019-03-22T23:51:19.330Z,101273.51
2019-03-22T23:56:25.478Z,101266.61
